createdAt,value
2018-07-16T00:00:31.878Z,101123.22
2018-07-16T00:02:59.145Z,101125.00
2018-07-16T00:05:26.305Z,101118.52
2018-07-16T00:07:53.831Z,101123.94
2018-07-16T00:10:20.998Z,101123.98
2018-07-16T00:12:48.155Z,101123.67
2018-07-16T00:15:15.351Z,101120.15
2018-07-16T00:17:42.473Z,101118.47
2018-07-16T00:20:09.581Z,101115.00
2018-07-16T00:22:36.707Z,101114.48
2018-07-16T00:25:03.840Z,101113.67
2018-07-16T00:27:35.718Z,101109.80
2018-07-16T00:30:04.214Z,101116.16
2018-07-16T00:32:31.344Z,101108.71
2018-07-16T00:34:58.484Z,101106.11
2018-07-16T00:37:25.745Z,101109.77
2018-07-16T00:39:52.843Z,101112.52
2018-07-16T00:42:19.997Z,101111.65
2018-07-16T00:44:47.209Z,101115.63
2018-07-16T00:47:14.344Z,101111.65
2018-07-16T00:49:41.438Z,101114.76
2018-07-16T00:52:08.677Z,101112.56
2018-07-16T00:54:35.789Z,101112.11
2018-07-16T00:57:02.900Z,101111.65
2018-07-16T00:59:30.109Z,101105.58
2018-07-16T01:01:57.285Z,101100.46
2018-07-16T01:04:24.411Z,101103.27
2018-07-16T01:06:51.752Z,101101.16
2018-07-16T01:09:18.885Z,101102.68
2018-07-16T01:11:45.975Z,101104.92
2018-07-16T01:14:13.160Z,101102.81
2018-07-16T01:16:41.171Z,101099.39
2018-07-16T01:19:09.871Z,101096.10
2018-07-16T01:21:37.123Z,101100.08
2018-07-16T01:24:04.304Z,101106.44
2018-07-16T01:26:31.448Z,101104.06
2018-07-16T01:28:59.644Z,101110.22
2018-07-16T01:31:26.755Z,101105.14
2018-07-16T01:33:54.130Z,101104.87
2018-07-16T01:36:21.343Z,101101.40
2018-07-16T01:38:48.656Z,101097.93
2018-07-16T01:41:15.746Z,101101.48
2018-07-16T01:43:42.904Z,101094.00
2018-07-16T01:46:09.985Z,101095.42
2018-07-16T01:48:37.107Z,101103.36
2018-07-16T01:51:04.356Z,101104.73
2018-07-16T01:53:31.447Z,101101.80
2018-07-16T01:55:58.699Z,101099.83
2018-07-16T01:58:25.969Z,101102.16
2018-07-16T02:00:56.741Z,101102.70
2018-07-16T02:03:28.543Z,101099.59
2018-07-16T02:05:55.857Z,101096.16
2018-07-16T02:08:23.813Z,101101.10
2018-07-16T02:10:51.429Z,101105.73
2018-07-16T02:13:18.704Z,101106.86
2018-07-16T02:15:45.887Z,101104.30
2018-07-16T02:18:13.908Z,101104.80
2018-07-16T02:20:41.347Z,101110.51
2018-07-16T02:23:08.452Z,101108.81
2018-07-16T02:25:35.704Z,101109.68
2018-07-16T02:28:02.832Z,101108.48
2018-07-16T02:30:29.976Z,101105.30
2018-07-16T02:32:57.807Z,101102.48
2018-07-16T02:35:24.932Z,101096.82
2018-07-16T02:37:53.089Z,101093.55
2018-07-16T02:40:20.354Z,101090.66
2018-07-16T02:42:48.372Z,101091.69
2018-07-16T02:45:15.499Z,101095.70
2018-07-16T02:47:42.682Z,101087.94
2018-07-16T02:50:09.778Z,101087.28
2018-07-16T02:52:36.876Z,101093.98
2018-07-16T02:55:04.133Z,101096.17
2018-07-16T02:57:31.552Z,101096.78
2018-07-16T02:59:58.709Z,101094.84
2018-07-16T03:02:25.970Z,101100.58
2018-07-16T03:04:53.072Z,101107.23
2018-07-16T03:07:20.227Z,101101.31
2018-07-16T03:09:47.517Z,101099.50
2018-07-16T03:12:14.657Z,101094.75
2018-07-16T03:14:41.788Z,101089.83
2018-07-16T03:17:09.637Z,101090.41
2018-07-16T03:19:36.784Z,101093.38
2018-07-16T03:22:03.959Z,101090.41
2018-07-16T03:24:31.775Z,101091.92
2018-07-16T03:26:59.833Z,101097.96
2018-07-16T03:29:27.835Z,101106.52
2018-07-16T03:31:55.242Z,101106.94
2018-07-16T03:34:22.384Z,101106.11
2018-07-16T03:36:49.524Z,101109.33
2018-07-16T03:39:16.754Z,101105.70
2018-07-16T03:41:43.863Z,101107.77
2018-07-16T03:44:10.986Z,101107.98
2018-07-16T03:46:38.250Z,101102.16
2018-07-16T03:49:05.402Z,101095.01
2018-07-16T03:51:32.522Z,101099.84
2018-07-16T03:53:59.812Z,101094.96
2018-07-16T03:56:26.971Z,101101.20
2018-07-16T03:58:54.143Z,101096.41
2018-07-16T04:01:21.404Z,101090.63
2018-07-16T04:03:48.484Z,101093.98
2018-07-16T04:06:15.666Z,101094.30
2018-07-16T04:08:42.852Z,101096.33
2018-07-16T04:11:10.015Z,101098.80
2018-07-16T04:13:37.106Z,101089.88
2018-07-16T04:16:04.343Z,101094.13
2018-07-16T04:18:31.464Z,101099.33
2018-07-16T04:20:58.875Z,101096.02
2018-07-16T04:23:26.167Z,101095.44
2018-07-16T04:25:53.288Z,101099.09
2018-07-16T04:28:20.387Z,101088.83
2018-07-16T04:30:47.666Z,101080.26
2018-07-16T04:33:14.798Z,101090.99
2018-07-16T04:35:41.883Z,101088.48
2018-07-16T04:38:09.125Z,101083.14
2018-07-16T04:40:36.239Z,101093.14
2018-07-16T04:43:04.149Z,101090.63
2018-07-16T04:45:31.499Z,101090.16
2018-07-16T04:47:59.794Z,101087.23
2018-07-16T04:50:27.954Z,101093.53
2018-07-16T04:52:55.385Z,101086.24
2018-07-16T04:55:22.549Z,101092.23
2018-07-16T04:57:50.910Z,101083.88
2018-07-16T05:00:19.070Z,101086.75
2018-07-16T05:02:46.584Z,101083.70
2018-07-16T05:05:18.123Z,101081.19
2018-07-16T05:07:47.409Z,101079.80
2018-07-16T05:10:15.132Z,101084.76
2018-07-16T05:12:42.461Z,101083.10
2018-07-16T05:15:11.649Z,101074.77
2018-07-16T05:17:41.177Z,101072.95
2018-07-16T05:20:08.597Z,101083.89
2018-07-16T05:22:36.551Z,101076.98
2018-07-16T05:25:05.013Z,101079.05
2018-07-16T05:27:33.589Z,101077.37
2018-07-16T05:30:02.661Z,101077.55
2018-07-16T05:32:32.238Z,101074.35
2018-07-16T05:35:01.755Z,101069.19
2018-07-16T05:37:31.283Z,101065.97
2018-07-16T05:39:59.545Z,101072.45
2018-07-16T05:42:29.379Z,101079.44
2018-07-16T05:45:00.501Z,101076.91
2018-07-16T05:47:32.190Z,101074.19
2018-07-16T05:50:01.065Z,101072.94
2018-07-16T05:52:30.545Z,101067.69
2018-07-16T05:54:59.682Z,101062.47
2018-07-16T05:57:29.179Z,101061.91
2018-07-16T06:00:00.238Z,101062.77
2018-07-16T06:02:29.833Z,101066.19
2018-07-16T06:04:59.298Z,101051.84
2018-07-16T06:07:27.933Z,101049.56
2018-07-16T06:09:59.216Z,101049.70
2018-07-16T06:12:30.539Z,101052.43
2018-07-16T06:14:59.506Z,101057.20
2018-07-16T06:17:27.358Z,101049.45
2018-07-16T06:19:54.557Z,101059.05
2018-07-16T06:39:37.470Z,101047.95
2018-07-16T06:42:05.249Z,101047.92
2018-07-16T06:44:34.061Z,101054.44
2018-07-16T06:47:01.358Z,101052.92
2018-07-16T06:49:28.656Z,101049.94
2018-07-16T06:51:55.802Z,101049.95
2018-07-16T07:11:37.669Z,101042.17
2018-07-16T07:14:05.361Z,101040.33
2018-07-16T07:16:32.748Z,101037.84
2018-07-16T07:18:59.934Z,101045.09
2018-07-16T07:21:27.085Z,101036.89
2018-07-16T07:32:32.872Z,101025.58
2018-07-16T07:35:00.181Z,101023.37
2018-07-16T07:37:27.309Z,101028.79
2018-07-16T07:39:54.568Z,101022.36
2018-07-16T07:42:21.803Z,101025.85
2018-07-16T07:44:49.209Z,101028.09
2018-07-16T07:47:16.847Z,101031.84
2018-07-16T07:49:44.496Z,101030.83
2018-07-16T07:52:13.348Z,101031.28
2018-07-16T07:54:41.298Z,101038.73
2018-07-16T07:57:08.279Z,101044.19
2018-07-16T07:59:35.370Z,101040.05
2018-07-16T08:02:02.687Z,101040.83
2018-07-16T08:04:29.934Z,101037.41
2018-07-16T08:07:02.833Z,101026.94
2018-07-16T08:09:30.017Z,101039.01
2018-07-16T08:11:57.265Z,101037.20
2018-07-16T08:14:24.419Z,101025.30
2018-07-16T08:16:51.709Z,101024.48
2018-07-16T08:19:19.009Z,101019.95
2018-07-16T08:21:46.289Z,101022.19
2018-07-16T08:24:13.665Z,101021.23
2018-07-16T08:26:40.868Z,101024.99
2018-07-16T08:29:08.085Z,101015.05
2018-07-16T08:31:35.367Z,101019.06
2018-07-16T08:34:02.511Z,101020.43
2018-07-16T08:36:29.706Z,101012.33
2018-07-16T08:38:57.155Z,101012.81
2018-07-16T08:41:24.835Z,101009.13
2018-07-16T08:43:52.017Z,101004.94
2018-07-16T08:46:19.308Z,101005.50
2018-07-16T08:48:46.429Z,101002.69
2018-07-16T08:51:13.587Z,101007.64
2018-07-16T08:53:40.912Z,101001.21
2018-07-16T08:56:08.236Z,101003.20
2018-07-16T08:58:35.542Z,101003.44
2018-07-16T09:01:02.946Z,101012.57
2018-07-16T09:03:30.121Z,101012.57
2018-07-16T09:06:04.330Z,101011.10
2018-07-16T09:08:33.829Z,101002.84
2018-07-16T09:11:01.150Z,101005.00
2018-07-16T09:13:28.335Z,101003.52
2018-07-16T09:15:55.496Z,101001.55
2018-07-16T09:18:22.757Z,101008.96
2018-07-16T09:20:49.989Z,101001.95
2018-07-16T09:23:17.280Z,101003.80
2018-07-16T09:25:49.012Z,101011.28
2018-07-16T09:28:16.201Z,101003.64
2018-07-16T09:30:43.405Z,101002.98
2018-07-16T09:33:10.884Z,101006.99
2018-07-16T09:35:38.075Z,101003.41
2018-07-16T09:38:05.450Z,101009.91
2018-07-16T09:40:32.752Z,101008.34
2018-07-16T09:42:59.913Z,101007.45
2018-07-16T09:45:27.081Z,101005.72
2018-07-16T09:47:54.290Z,101003.91
2018-07-16T09:50:21.395Z,100988.08
2018-07-16T09:52:48.589Z,100993.92
2018-07-16T09:55:15.959Z,100985.18
2018-07-16T09:57:43.127Z,100977.13
2018-07-16T10:00:10.353Z,100973.97
2018-07-16T10:02:37.693Z,100976.03
2018-07-16T10:05:05.854Z,100985.45
2018-07-16T10:07:33.323Z,100973.63
2018-07-16T10:10:00.492Z,100974.97
2018-07-16T10:12:27.620Z,100969.89
2018-07-16T10:14:54.799Z,100971.94
2018-07-16T10:17:21.997Z,100965.10
2018-07-16T10:19:49.340Z,100964.32
2018-07-16T10:22:16.464Z,100968.38
2018-07-16T10:24:43.802Z,100960.72
2018-07-16T10:27:11.417Z,100972.34
2018-07-16T10:29:38.818Z,100961.72
2018-07-16T10:32:06.865Z,100964.52
2018-07-16T10:34:34.468Z,100965.91
2018-07-16T10:37:01.620Z,100949.00
2018-07-16T10:39:28.903Z,100958.20
2018-07-16T10:41:56.104Z,100952.91
2018-07-16T10:44:23.193Z,100947.67
2018-07-16T10:46:50.449Z,100950.73
2018-07-16T10:49:17.652Z,100944.45
2018-07-16T10:51:45.394Z,100935.00
2018-07-16T10:54:12.780Z,100941.66
2018-07-16T10:56:40.165Z,100941.80
2018-07-16T10:59:07.377Z,100939.45
2018-07-16T11:01:35.937Z,100945.39
2018-07-16T11:04:03.653Z,100935.40
2018-07-16T11:06:30.965Z,100934.66
2018-07-16T11:08:58.209Z,100937.72
2018-07-16T11:11:25.363Z,100939.83
2018-07-16T11:13:52.502Z,100930.20
2018-07-16T11:16:19.958Z,100923.14
2018-07-16T11:18:47.809Z,100921.70
2018-07-16T11:21:15.155Z,100921.11
2018-07-16T11:23:42.628Z,100928.87
2018-07-16T11:26:09.767Z,100918.45
2018-07-16T11:28:36.917Z,100914.25
2018-07-16T11:31:04.396Z,100905.06
2018-07-16T11:33:31.574Z,100906.44
2018-07-16T11:35:58.809Z,100907.80
2018-07-16T11:38:27.232Z,100898.24
2018-07-16T11:40:54.335Z,100897.83
2018-07-16T11:43:21.530Z,100905.16
2018-07-16T11:45:48.976Z,100907.50
2018-07-16T11:48:16.612Z,100903.31
2018-07-16T11:50:44.124Z,100895.09
2018-07-16T11:53:11.412Z,100896.81
2018-07-16T11:55:38.648Z,100901.24
2018-07-16T11:58:05.796Z,100895.50
2018-07-16T12:00:33.100Z,100899.27
2018-07-16T12:03:00.226Z,100888.86
2018-07-16T12:05:27.412Z,100890.45
2018-07-16T12:07:55.009Z,100882.38
2018-07-16T12:10:22.318Z,100880.55
2018-07-16T12:12:49.563Z,100880.98
2018-07-16T12:15:16.744Z,100870.42
2018-07-16T12:17:44.041Z,100872.77
2018-07-16T12:20:11.175Z,100871.18
2018-07-16T12:22:38.405Z,100864.28
2018-07-16T12:25:05.911Z,100851.35
2018-07-16T12:27:33.118Z,100850.92
2018-07-16T12:30:00.454Z,100849.34
2018-07-16T12:32:30.490Z,100845.44
2018-07-16T12:34:57.787Z,100848.69
2018-07-16T12:37:25.499Z,100845.56
2018-07-16T12:39:52.673Z,100836.48
2018-07-16T12:42:20.214Z,100833.82
2018-07-16T12:44:47.366Z,100832.39
2018-07-16T12:47:14.724Z,100826.34
2018-07-16T12:49:42.002Z,100818.36
2018-07-16T12:52:09.266Z,100817.54
2018-07-16T12:54:36.541Z,100813.58
2018-07-16T12:57:03.881Z,100808.17
2018-07-16T12:59:31.329Z,100804.64
2018-07-16T13:01:59.307Z,100809.19
2018-07-16T13:04:26.674Z,100801.86
2018-07-16T13:06:54.423Z,100804.31
2018-07-16T13:09:21.868Z,100799.87
2018-07-16T13:11:49.360Z,100800.10
2018-07-16T13:14:17.651Z,100797.94
2018-07-16T13:16:44.893Z,100788.36
2018-07-16T13:19:12.025Z,100778.25
2018-07-16T13:21:39.294Z,100780.23
2018-07-16T13:24:06.517Z,100776.63
2018-07-16T13:26:33.738Z,100775.86
2018-07-16T13:29:00.885Z,100766.20
2018-07-16T13:31:28.040Z,100768.78
2018-07-16T13:33:55.437Z,100759.70
2018-07-16T13:36:22.969Z,100761.98
2018-07-16T13:38:50.567Z,100759.10
2018-07-16T13:41:18.183Z,100756.63
2018-07-16T13:43:45.413Z,100750.84
2018-07-16T13:46:12.516Z,100751.87
2018-07-16T13:48:39.648Z,100749.08
2018-07-16T13:51:07.441Z,100745.66
2018-07-16T13:53:34.567Z,100745.94
2018-07-16T13:56:01.768Z,100740.23
2018-07-16T13:58:28.925Z,100733.09
2018-07-16T14:00:56.309Z,100729.25
2018-07-16T14:03:23.777Z,100726.88
2018-07-16T14:05:52.037Z,100726.04
2018-07-16T14:08:19.697Z,100719.86
2018-07-16T14:10:46.998Z,100721.63
2018-07-16T14:13:14.795Z,100723.47
2018-07-16T14:15:41.975Z,100708.69
2018-07-16T14:18:09.091Z,100705.96
2018-07-16T14:20:36.376Z,100708.35
2018-07-16T14:23:04.196Z,100715.59
2018-07-16T14:25:31.382Z,100714.92
2018-07-16T14:27:58.854Z,100713.02
2018-07-16T14:30:26.190Z,100708.77
2018-07-16T14:32:53.669Z,100712.83
2018-07-16T14:35:21.320Z,100711.48
2018-07-16T14:37:48.934Z,100708.69
2018-07-16T14:40:16.332Z,100711.34
2018-07-16T14:42:43.906Z,100708.98
2018-07-16T14:45:11.040Z,100710.23
2018-07-16T14:47:38.192Z,100707.30
2018-07-16T14:50:05.372Z,100706.64
2018-07-16T14:52:32.640Z,100711.61
2018-07-16T14:54:59.967Z,100707.01
2018-07-16T14:57:27.365Z,100704.95
2018-07-16T14:59:54.603Z,100710.42
2018-07-16T15:02:22.112Z,100701.28
2018-07-16T15:04:49.852Z,100706.11
2018-07-16T15:07:17.070Z,100706.55
2018-07-16T15:09:44.284Z,100700.53
2018-07-16T15:12:12.352Z,100704.24
2018-07-16T15:14:41.603Z,100694.95
2018-07-16T15:17:08.880Z,100691.92
2018-07-16T15:19:36.358Z,100693.11
2018-07-16T15:22:03.509Z,100698.47
2018-07-16T15:24:30.615Z,100695.34
2018-07-16T15:26:58.728Z,100696.63
2018-07-16T15:29:26.118Z,100691.59
2018-07-16T15:31:53.513Z,100698.55
2018-07-16T15:34:21.101Z,100691.73
2018-07-16T15:36:48.698Z,100691.11
2018-07-16T15:39:15.836Z,100685.38
2018-07-16T15:41:43.065Z,100677.51
2018-07-16T15:44:10.178Z,100681.42
2018-07-16T15:46:37.301Z,100676.30
2018-07-16T15:49:04.500Z,100681.41
2018-07-16T15:51:31.605Z,100685.80
2018-07-16T15:53:59.248Z,100677.34
2018-07-16T15:56:26.976Z,100674.75
2018-07-16T15:58:54.319Z,100675.34
2018-07-16T16:01:21.499Z,100668.01
2018-07-16T16:03:48.992Z,100663.08
2018-07-16T16:06:16.268Z,100659.28
2018-07-16T16:08:43.425Z,100657.34
2018-07-16T16:11:10.620Z,100661.41
2018-07-16T16:13:37.896Z,100663.97
2018-07-16T16:16:05.166Z,100668.80
2018-07-16T16:18:32.351Z,100668.22
2018-07-16T16:20:59.530Z,100667.22
2018-07-16T16:23:26.861Z,100668.77
2018-07-16T16:25:54.335Z,100664.16
2018-07-16T16:28:21.741Z,100663.11
2018-07-16T16:30:49.579Z,100665.73
2018-07-16T16:33:16.978Z,100664.39
2018-07-16T16:35:44.273Z,100665.14
2018-07-16T16:38:11.433Z,100666.84
2018-07-16T16:40:38.750Z,100666.84
2018-07-16T16:43:06.054Z,100661.10
2018-07-16T16:45:33.355Z,100660.90
2018-07-16T16:48:00.895Z,100662.16
2018-07-16T16:50:28.225Z,100659.75
2018-07-16T16:52:55.636Z,100662.58
2018-07-16T16:55:23.140Z,100660.91
2018-07-16T16:57:50.661Z,100651.56
2018-07-16T17:00:18.374Z,100651.96
2018-07-16T17:02:45.595Z,100656.57
2018-07-16T17:05:12.756Z,100652.72
2018-07-16T17:07:40.103Z,100648.53
2018-07-16T17:10:07.564Z,100640.69
2018-07-16T17:12:34.688Z,100638.00
2018-07-16T17:15:01.884Z,100635.20
2018-07-16T17:17:29.468Z,100636.73
2018-07-16T17:19:57.252Z,100634.65
2018-07-16T17:22:24.616Z,100637.09
2018-07-16T17:24:52.190Z,100637.53
2018-07-16T17:27:19.877Z,100641.13
2018-07-16T17:29:47.159Z,100632.02
2018-07-16T17:32:14.477Z,100636.59
2018-07-16T17:34:41.636Z,100630.36
2018-07-16T17:37:10.245Z,100630.34
2018-07-16T17:39:37.520Z,100633.91
2018-07-16T17:42:04.699Z,100635.55
2018-07-16T17:44:31.919Z,100633.55
2018-07-16T17:46:59.528Z,100629.53
2018-07-16T17:49:26.723Z,100630.20
2018-07-16T17:51:54.046Z,100627.28
2018-07-16T17:54:21.223Z,100626.66
2018-07-16T17:56:48.431Z,100627.97
2018-07-16T17:59:15.555Z,100626.41
2018-07-16T18:01:44.832Z,100637.04
2018-07-16T18:04:12.071Z,100638.02
2018-07-16T18:06:39.502Z,100643.34
2018-07-16T18:09:08.269Z,100645.73
2018-07-16T18:11:36.661Z,100650.69
2018-07-16T18:14:04.088Z,100646.21
2018-07-16T18:16:31.883Z,100647.11
2018-07-16T18:19:00.077Z,100654.61
2018-07-16T18:21:27.360Z,100654.77
2018-07-16T18:23:54.621Z,100654.55
2018-07-16T18:26:21.822Z,100652.50
2018-07-16T18:28:49.108Z,100657.94
2018-07-16T18:31:17.929Z,100659.02
2018-07-16T18:33:45.107Z,100662.42
2018-07-16T18:36:12.810Z,100659.66
2018-07-16T18:38:40.517Z,100661.86
2018-07-16T18:41:08.064Z,100661.98
2018-07-16T18:43:35.393Z,100654.04
2018-07-16T18:46:02.640Z,100665.39
2018-07-16T18:48:29.803Z,100667.35
2018-07-16T18:50:56.960Z,100666.84
2018-07-16T18:53:24.267Z,100667.27
2018-07-16T18:55:51.519Z,100674.09
2018-07-16T18:58:19.001Z,100679.95
2018-07-16T19:00:46.421Z,100679.58
2018-07-16T19:03:13.803Z,100679.80
2018-07-16T19:05:41.437Z,100675.94
2018-07-16T19:08:09.590Z,100678.94
2018-07-16T19:10:36.750Z,100679.10
2018-07-16T19:13:03.905Z,100682.47
2018-07-16T19:15:31.108Z,100681.80
2018-07-16T19:17:58.353Z,100685.48
2018-07-16T19:20:26.698Z,100685.92
2018-07-16T19:22:53.906Z,100686.21
2018-07-16T19:25:21.057Z,100691.00
2018-07-16T19:27:48.346Z,100693.55
2018-07-16T19:30:16.339Z,100719.29
2018-07-16T19:32:44.206Z,100718.02
2018-07-16T19:35:11.957Z,100722.03
2018-07-16T19:37:40.050Z,100724.61
2018-07-16T19:40:08.582Z,100725.70
2018-07-16T19:42:35.722Z,100727.15
2018-07-16T19:45:06.812Z,100721.41
2018-07-16T19:47:34.189Z,100723.96
2018-07-16T19:50:01.517Z,100727.81
2018-07-16T19:52:28.800Z,100725.11
2018-07-16T19:54:56.232Z,100720.20
2018-07-16T19:57:23.942Z,100718.59
2018-07-16T19:59:52.133Z,100720.80
2018-07-16T20:02:19.674Z,100725.86
2018-07-16T20:04:47.168Z,100725.45
2018-07-16T20:07:14.583Z,100727.52
2018-07-16T20:09:41.726Z,100724.14
2018-07-16T20:12:13.493Z,100716.21
2018-07-16T20:14:40.673Z,100718.09
2018-07-16T20:17:07.811Z,100716.06
2018-07-16T20:19:34.999Z,100708.66
2018-07-16T20:22:02.189Z,100710.39
2018-07-16T20:24:29.677Z,100711.13
2018-07-16T20:26:57.053Z,100705.31
2018-07-16T20:29:24.491Z,100701.77
2018-07-16T20:31:52.265Z,100703.50
2018-07-16T20:34:19.868Z,100693.04
2018-07-16T20:36:47.237Z,100694.61
2018-07-16T20:39:14.609Z,100693.41
2018-07-16T20:41:48.317Z,100693.16
2018-07-16T20:44:15.423Z,100692.14
2018-07-16T20:46:42.566Z,100689.69
2018-07-16T20:49:09.744Z,100694.67
2018-07-16T20:51:37.293Z,100696.03
2018-07-16T20:54:04.814Z,100695.16
2018-07-16T20:56:32.947Z,100696.61
2018-07-16T20:59:01.375Z,100702.16
2018-07-16T21:01:28.871Z,100705.41
2018-07-16T21:03:56.183Z,100709.13
2018-07-16T21:06:23.358Z,100711.33
2018-07-16T21:08:50.455Z,100709.70
2018-07-16T21:11:17.803Z,100710.34
2018-07-16T21:13:44.894Z,100706.44
2018-07-16T21:16:12.078Z,100710.73
2018-07-16T21:18:39.632Z,100717.48
2018-07-16T21:21:06.881Z,100715.61
2018-07-16T21:23:35.448Z,100712.38
2018-07-16T21:26:02.968Z,100724.28
2018-07-16T21:28:30.306Z,100726.44
2018-07-16T21:30:57.444Z,100727.56
2018-07-16T21:33:24.920Z,100729.55
2018-07-16T21:35:52.179Z,100724.97
2018-07-16T21:38:19.332Z,100725.22
2018-07-16T21:40:46.650Z,100724.44
2018-07-16T21:43:13.676Z,100724.64
2018-07-16T21:45:40.774Z,100735.19
2018-07-16T21:48:08.036Z,100727.70
2018-07-16T21:50:36.152Z,100729.20
2018-07-16T21:53:03.283Z,100730.70
2018-07-16T21:55:30.477Z,100730.20
2018-07-16T21:57:57.635Z,100734.11
2018-07-16T22:00:27.334Z,100731.70
2018-07-16T22:02:54.775Z,100735.75
2018-07-16T22:05:22.484Z,100733.52
2018-07-16T22:07:49.710Z,100726.66
2018-07-16T22:10:16.989Z,100728.08
2018-07-16T22:12:44.193Z,100725.16
2018-07-16T22:15:15.717Z,100726.09
2018-07-16T22:17:42.853Z,100721.13
2018-07-16T22:20:09.945Z,100722.45
2018-07-16T22:22:37.160Z,100721.75
2018-07-16T22:25:04.394Z,100720.89
2018-07-16T22:27:31.920Z,100722.19
2018-07-16T22:29:59.010Z,100724.73
2018-07-16T22:32:27.692Z,100719.64
2018-07-16T22:34:54.789Z,100717.33
2018-07-16T22:37:23.086Z,100721.67
2018-07-16T22:39:50.307Z,100720.97
2018-07-16T22:42:18.742Z,100721.23
2018-07-16T22:44:45.948Z,100719.35
2018-07-16T22:47:13.114Z,100714.45
2018-07-16T22:49:40.428Z,100712.72
2018-07-16T22:52:07.557Z,100718.23
2018-07-16T22:54:34.710Z,100720.97
2018-07-16T22:57:01.798Z,100724.25
2018-07-16T22:59:28.900Z,100723.47
2018-07-16T23:01:56.160Z,100720.75
2018-07-16T23:04:23.295Z,100724.06
2018-07-16T23:06:50.512Z,100727.03
2018-07-16T23:09:18.601Z,100724.48
2018-07-16T23:11:45.771Z,100726.78
2018-07-16T23:14:12.947Z,100724.20
2018-07-16T23:16:40.108Z,100728.12
2018-07-16T23:19:07.205Z,100726.14
2018-07-16T23:21:34.266Z,100721.94
2018-07-16T23:24:01.407Z,100723.34
2018-07-16T23:26:28.608Z,100718.83
2018-07-16T23:28:55.817Z,100717.89
2018-07-16T23:31:23.005Z,100720.23
2018-07-16T23:33:50.260Z,100715.99
2018-07-16T23:36:17.352Z,100715.23
2018-07-16T23:38:44.590Z,100710.45
2018-07-16T23:41:11.765Z,100720.30
2018-07-16T23:43:38.850Z,100722.03
2018-07-16T23:46:06.057Z,100713.66
2018-07-16T23:48:33.184Z,100721.09
2018-07-16T23:51:00.429Z,100718.19
2018-07-16T23:53:27.622Z,100715.13
2018-07-16T23:55:54.823Z,100715.78
2018-07-16T23:58:22.827Z,100718.27
